createdAt,value
2023-02-13T00:00:20.260Z,112.93
2023-02-13T00:02:46.925Z,115.65
2023-02-13T00:05:13.617Z,107.47
2023-02-13T00:07:40.959Z,107.88
2023-02-13T00:10:08.239Z,100.75
2023-02-13T00:12:35.020Z,108.55
2023-02-13T00:15:01.659Z,107.20
2023-02-13T00:17:28.358Z,106.57
2023-02-13T00:19:54.944Z,104.50
2023-02-13T00:22:21.548Z,108.13
2023-02-13T00:24:48.474Z,98.40
2023-02-13T00:27:15.108Z,107.90
2023-02-13T00:29:41.768Z,100.40
2023-02-13T00:32:08.777Z,100.07
2023-02-13T00:34:35.857Z,103.63
2023-02-13T00:37:02.436Z,102.97
2023-02-13T00:39:29.114Z,94.38
2023-02-13T00:41:55.689Z,104.82
2023-02-13T00:44:22.289Z,103.05
2023-02-13T00:46:48.934Z,91.70
2023-02-13T00:49:15.571Z,96.05
2023-02-13T00:51:42.199Z,99.40
2023-02-13T00:54:08.777Z,98.93
2023-02-13T00:56:35.503Z,105.85
2023-02-13T00:59:02.285Z,103.18
2023-02-13T01:01:29.163Z,97.50
2023-02-13T01:03:55.817Z,100.78
2023-02-13T01:06:22.598Z,94.40
2023-02-13T01:08:49.249Z,98.15
2023-02-13T01:11:15.926Z,100.55
2023-02-13T01:13:42.586Z,93.88
2023-02-13T01:16:09.235Z,96.78
2023-02-13T01:18:36.041Z,93.80
2023-02-13T01:21:06.146Z,104.53
2023-02-13T01:23:37.717Z,90.45
2023-02-13T01:26:06.409Z,91.30
2023-02-13T01:28:33.874Z,100.88
2023-02-13T01:31:01.029Z,91.45
2023-02-13T01:33:28.992Z,98.35
2023-02-13T01:35:55.915Z,94.43
2023-02-13T01:38:22.530Z,90.72
2023-02-13T01:40:51.844Z,101.15
2023-02-13T01:43:19.001Z,95.80
2023-02-13T01:45:48.530Z,100.28
2023-02-13T01:48:21.704Z,95.32
2023-02-13T01:51:00.926Z,96.45
2023-02-13T01:53:45.412Z,101.18
2023-02-13T01:56:23.085Z,104.57
2023-02-13T01:58:54.628Z,108.28
2023-02-13T02:01:23.549Z,95.07
2023-02-13T02:04:19.967Z,109.03
2023-02-13T02:06:52.124Z,94.00
2023-02-13T02:09:25.750Z,92.38
2023-02-13T02:12:03.375Z,93.15
2023-02-13T02:14:30.192Z,90.22
2023-02-13T02:16:57.593Z,99.30
2023-02-13T02:19:55.360Z,88.05
2023-02-13T02:22:40.762Z,99.97
2023-02-13T02:25:37.340Z,100.63
2023-02-13T02:28:22.170Z,95.47
2023-02-13T02:30:54.629Z,87.57
2023-02-13T02:33:27.817Z,96.88
2023-02-13T02:36:06.867Z,99.63
2023-02-13T02:39:04.899Z,98.40
2023-02-13T02:41:54.717Z,88.10
2023-02-13T02:44:47.177Z,92.97
2023-02-13T02:47:49.754Z,101.07
2023-02-13T02:50:25.884Z,98.00
2023-02-13T02:53:14.406Z,90.13
2023-02-13T02:55:50.852Z,92.13
2023-02-13T02:58:55.027Z,87.32
2023-02-13T03:01:43.335Z,86.68
2023-02-13T03:04:48.139Z,93.18
2023-02-13T03:07:18.147Z,88.22
2023-02-13T03:10:10.057Z,79.88
2023-02-13T03:13:04.716Z,84.93
2023-02-13T03:15:32.356Z,96.28
2023-02-13T03:18:18.275Z,91.13
2023-02-13T03:21:26.764Z,85.72
2023-02-13T03:24:14.317Z,94.13
2023-02-13T03:27:12.025Z,89.00
2023-02-13T03:29:57.381Z,93.07
2023-02-13T03:32:47.384Z,89.95
2023-02-13T03:35:42.798Z,84.43
2023-02-13T03:38:19.859Z,94.28
2023-02-13T03:41:13.324Z,84.18
2023-02-13T03:44:04.695Z,91.35
2023-02-13T03:46:36.339Z,89.05
2023-02-13T03:49:25.073Z,85.32
2023-02-13T03:52:07.703Z,85.93
2023-02-13T03:55:07.608Z,86.78
2023-02-13T03:57:58.751Z,95.75
2023-02-13T04:00:29.347Z,93.60
2023-02-13T04:03:10.949Z,92.00
2023-02-13T04:05:43.396Z,98.33
2023-02-13T04:08:10.654Z,99.72
2023-02-13T04:10:55.403Z,87.82
2023-02-13T04:13:35.384Z,91.75
2023-02-13T04:16:22.500Z,90.88
2023-02-13T04:18:52.091Z,91.78
2023-02-13T04:21:18.673Z,90.70
2023-02-13T04:23:45.386Z,90.72
2023-02-13T04:26:18.219Z,96.03
2023-02-13T04:28:45.178Z,98.43
2023-02-13T04:31:11.970Z,85.60
2023-02-13T04:33:38.608Z,101.28
2023-02-13T04:36:05.700Z,90.78
2023-02-13T04:38:32.499Z,84.13
2023-02-13T04:40:59.649Z,87.95
2023-02-13T04:43:26.885Z,95.97
2023-02-13T04:45:53.613Z,86.80
2023-02-13T04:48:20.380Z,94.65
2023-02-13T04:50:48.112Z,96.85
2023-02-13T04:53:14.881Z,94.22
2023-02-13T04:55:41.488Z,100.90
2023-02-13T04:58:08.123Z,94.43
2023-02-13T05:00:34.716Z,92.40
2023-02-13T05:03:06.276Z,95.32
2023-02-13T05:05:33.460Z,102.70
2023-02-13T05:08:00.195Z,110.63
2023-02-13T05:10:27.388Z,100.57
2023-02-13T05:12:53.985Z,96.22
2023-02-13T05:15:21.251Z,98.32
2023-02-13T05:17:47.943Z,95.97
2023-02-13T05:20:14.755Z,93.55
2023-02-13T05:23:07.552Z,96.68
2023-02-13T05:25:35.569Z,106.97
2023-02-13T05:28:03.138Z,89.07
2023-02-13T05:30:29.853Z,96.72
2023-02-13T05:32:56.735Z,103.63
2023-02-13T05:35:24.903Z,104.15
2023-02-13T05:37:51.618Z,112.65
2023-02-13T05:40:18.691Z,118.38
2023-02-13T05:42:45.299Z,110.82
2023-02-13T05:45:11.969Z,103.22
2023-02-13T05:47:38.620Z,102.28
2023-02-13T05:50:06.004Z,108.82
2023-02-13T05:52:32.575Z,109.50
2023-02-13T05:55:04.511Z,113.07
2023-02-13T05:57:31.391Z,106.72
2023-02-13T05:59:58.529Z,107.45
2023-02-13T06:02:25.204Z,112.50
2023-02-13T06:04:51.888Z,115.90
2023-02-13T06:07:18.504Z,104.57
2023-02-13T06:09:45.052Z,116.30
2023-02-13T06:12:11.647Z,108.45
2023-02-13T06:14:38.238Z,114.47
2023-02-13T06:17:04.877Z,131.13
2023-02-13T06:19:31.577Z,126.43
2023-02-13T06:21:58.208Z,115.38
2023-02-13T06:24:24.796Z,108.68
2023-02-13T06:26:51.543Z,120.78
2023-02-13T06:29:18.161Z,115.95
2023-02-13T06:31:44.851Z,129.00
2023-02-13T06:34:11.465Z,140.57
2023-02-13T06:36:38.684Z,122.07
2023-02-13T06:39:05.323Z,133.05
2023-02-13T06:41:31.998Z,134.88
2023-02-13T06:43:58.637Z,128.65
2023-02-13T06:46:25.510Z,131.00
2023-02-13T06:48:52.147Z,143.02
2023-02-13T06:51:18.835Z,209.63
2023-02-13T06:53:45.464Z,218.02
2023-02-13T06:56:12.067Z,190.05
2023-02-13T06:58:40.105Z,161.02
2023-02-13T07:01:06.827Z,156.10
2023-02-13T07:03:33.603Z,154.05
2023-02-13T07:06:00.233Z,164.70
2023-02-13T07:08:26.920Z,189.27
2023-02-13T07:10:53.507Z,165.45
2023-02-13T07:13:20.158Z,180.95
2023-02-13T07:15:46.780Z,152.90
2023-02-13T07:18:13.443Z,152.38
2023-02-13T07:20:40.176Z,127.32
2023-02-13T07:23:07.709Z,124.20
2023-02-13T07:25:35.198Z,166.77
2023-02-13T07:28:03.627Z,183.88
2023-02-13T07:30:32.472Z,139.30
2023-02-13T07:33:01.938Z,122.10
2023-02-13T07:35:28.683Z,110.75
2023-02-13T07:37:55.885Z,110.60
2023-02-13T07:40:23.149Z,91.53
2023-02-13T07:42:49.760Z,103.80
2023-02-13T07:45:16.565Z,90.70
2023-02-13T07:47:43.463Z,95.30
2023-02-13T07:50:10.438Z,102.38
2023-02-13T07:52:40.237Z,94.57
2023-02-13T07:55:07.326Z,98.72
2023-02-13T07:57:34.049Z,97.22
2023-02-13T08:00:00.794Z,85.65
2023-02-13T08:02:27.486Z,83.07
2023-02-13T08:04:54.411Z,83.22
2023-02-13T08:07:21.126Z,83.07
2023-02-13T08:10:06.547Z,84.68
2023-02-13T08:12:35.789Z,87.20
2023-02-13T08:15:03.264Z,87.50
2023-02-13T08:17:29.856Z,81.65
2023-02-13T08:19:56.585Z,81.15
2023-02-13T08:22:23.246Z,89.05
2023-02-13T08:24:49.943Z,77.30
2023-02-13T08:27:16.662Z,79.45
2023-02-13T08:29:43.282Z,88.05
2023-02-13T08:32:10.070Z,79.47
2023-02-13T08:34:36.963Z,78.57
2023-02-13T08:37:03.764Z,76.43
2023-02-13T08:39:30.448Z,87.15
2023-02-13T08:41:57.131Z,87.97
2023-02-13T08:44:23.729Z,81.45
2023-02-13T08:46:50.308Z,80.55
2023-02-13T08:49:17.169Z,95.28
2023-02-13T08:51:43.861Z,80.60
2023-02-13T08:54:10.548Z,82.47
2023-02-13T08:56:37.263Z,81.40
2023-02-13T08:59:04.073Z,80.43
2023-02-13T09:01:30.804Z,81.78
2023-02-13T09:03:57.462Z,85.07
2023-02-13T09:06:26.355Z,86.78
2023-02-13T09:08:53.386Z,92.38
2023-02-13T09:11:23.301Z,76.75
2023-02-13T09:13:53.131Z,78.20
2023-02-13T09:16:20.230Z,88.68
2023-02-13T09:18:48.584Z,77.85
2023-02-13T09:21:15.488Z,74.88
2023-02-13T09:23:42.236Z,88.90
2023-02-13T09:26:11.474Z,83.07
2023-02-13T09:28:39.138Z,79.13
2023-02-13T09:31:10.148Z,76.60
2023-02-13T09:33:38.100Z,87.97
2023-02-13T09:36:10.388Z,73.05
2023-02-13T09:41:07.972Z,76.90
2023-02-13T09:43:44.699Z,78.20
2023-02-13T09:46:18.990Z,84.32
2023-02-13T09:48:49.405Z,82.75
2023-02-13T09:51:19.409Z,81.00
2023-02-13T09:53:55.639Z,71.70
2023-02-13T09:56:37.618Z,69.95
2023-02-13T09:59:27.231Z,75.63
2023-02-13T10:01:58.553Z,69.53
2023-02-13T10:04:40.244Z,73.57
2023-02-13T10:07:09.827Z,79.03
2023-02-13T10:09:44.789Z,67.88
2023-02-13T10:12:26.486Z,59.22
2023-02-13T10:15:20.604Z,70.37
2023-02-13T10:17:55.070Z,61.40
2023-02-13T10:20:43.200Z,55.20
2023-02-13T10:23:22.345Z,63.25
2023-02-13T10:26:01.023Z,57.60
2023-02-13T10:28:40.631Z,63.60
2023-02-13T10:31:12.732Z,56.55
2023-02-13T10:33:50.798Z,64.53
2023-02-13T10:36:28.462Z,58.67
2023-02-13T10:39:02.289Z,57.63
2023-02-13T10:41:52.066Z,61.85
2023-02-13T10:44:34.446Z,56.83
2023-02-13T10:47:10.771Z,62.25
2023-02-13T10:50:08.012Z,54.33
2023-02-13T10:52:43.386Z,61.70
2023-02-13T10:55:24.845Z,53.30
2023-02-13T10:58:17.708Z,54.23
2023-02-13T11:00:58.984Z,54.22
2023-02-13T11:03:28.406Z,53.90
2023-02-13T11:05:57.306Z,50.47
2023-02-13T11:08:43.179Z,55.95
2023-02-13T11:11:35.970Z,56.53
2023-02-13T11:14:10.566Z,44.20
2023-02-13T11:17:01.588Z,44.95
2023-02-13T11:19:38.910Z,47.55
2023-02-13T11:22:13.506Z,40.85
2023-02-13T11:24:53.517Z,36.40
2023-02-13T11:27:26.818Z,41.05
2023-02-13T11:30:05.264Z,36.25
2023-02-13T11:32:34.173Z,38.45
2023-02-13T11:35:31.742Z,41.65
2023-02-13T11:38:23.698Z,37.85
2023-02-13T11:41:11.261Z,31.13
2023-02-13T11:43:47.589Z,31.33
2023-02-13T11:46:23.744Z,31.73
2023-02-13T11:48:59.516Z,25.90
2023-02-13T11:51:42.949Z,24.75
2023-02-13T11:54:32.596Z,22.77
2023-02-13T11:57:05.424Z,24.23
2023-02-13T11:59:40.257Z,25.63
2023-02-13T12:02:15.628Z,26.65
2023-02-13T12:04:42.810Z,30.20
2023-02-13T12:07:27.485Z,20.10
2023-02-13T12:10:14.146Z,24.98
2023-02-13T12:13:11.163Z,23.05
2023-02-13T12:15:38.138Z,24.90
2023-02-13T12:18:04.735Z,25.27
2023-02-13T12:20:40.938Z,22.63
2023-02-13T12:23:18.058Z,25.70
2023-02-13T12:26:22.104Z,22.20
2023-02-13T12:29:08.782Z,21.85
2023-02-13T12:31:47.240Z,20.30
2023-02-13T12:34:54.576Z,21.40
2023-02-13T12:37:39.018Z,22.92
2023-02-13T12:40:37.011Z,19.58
2023-02-13T12:43:19.009Z,23.20
2023-02-13T12:45:57.657Z,21.02
2023-02-13T12:48:35.092Z,25.00
2023-02-13T12:51:23.044Z,24.70
2023-02-13T12:54:22.564Z,27.60
2023-02-13T12:57:30.872Z,27.23
2023-02-13T13:00:03.259Z,22.25
2023-02-13T13:06:08.938Z,27.48
2023-02-13T13:08:59.654Z,23.95
2023-02-13T13:11:44.467Z,19.02
2023-02-13T13:14:31.626Z,25.30
2023-02-13T13:17:25.326Z,22.85
2023-02-13T13:19:57.322Z,20.38
2023-02-13T13:22:37.754Z,24.45
2023-02-13T13:25:44.036Z,22.40
2023-02-13T13:28:17.220Z,29.92
2023-02-13T13:30:45.782Z,23.92
2023-02-13T13:33:21.236Z,21.92
2023-02-13T13:36:44.941Z,25.65
2023-02-13T13:39:30.216Z,25.48
2023-02-13T13:42:14.749Z,24.13
2023-02-13T13:44:53.506Z,22.60
2023-02-13T13:47:48.972Z,23.45
2023-02-13T13:50:27.861Z,25.98
2023-02-13T13:53:19.813Z,25.23
2023-02-13T13:56:11.312Z,24.80
2023-02-13T13:58:49.553Z,26.65
2023-02-13T14:01:29.790Z,29.88
2023-02-13T14:04:24.312Z,33.70
2023-02-13T14:06:50.856Z,25.52
2023-02-13T14:09:39.031Z,21.50
2023-02-13T14:12:24.332Z,22.88
2023-02-13T14:14:52.692Z,31.02
2023-02-13T14:17:44.509Z,28.10
2023-02-13T14:20:31.389Z,22.37
2023-02-13T14:23:08.431Z,24.80
2023-02-13T14:25:35.456Z,22.52
2023-02-13T14:28:06.516Z,24.10
2023-02-13T14:30:36.552Z,24.13
2023-02-13T14:33:06.078Z,25.63
2023-02-13T14:35:37.466Z,25.48
2023-02-13T14:38:08.268Z,21.37
2023-02-13T14:40:52.082Z,31.98
2023-02-13T14:43:40.298Z,23.42
2023-02-13T14:46:18.951Z,23.67
2023-02-13T14:48:51.570Z,28.58
2023-02-13T14:51:34.420Z,22.67
2023-02-13T14:54:06.603Z,26.75
2023-02-13T14:56:34.028Z,26.52
2023-02-13T14:59:20.239Z,22.17
2023-02-13T15:01:52.861Z,22.58
2023-02-13T15:05:01.437Z,20.27
2023-02-13T15:07:32.225Z,22.63
2023-02-13T15:10:05.920Z,23.13
2023-02-13T15:12:37.625Z,20.75
2023-02-13T15:15:24.231Z,22.60
2023-02-13T15:18:04.680Z,25.40
2023-02-13T15:20:34.891Z,21.77
2023-02-13T15:23:02.470Z,23.02
2023-02-13T15:25:37.017Z,25.83
2023-02-13T15:28:06.693Z,22.10
2023-02-13T15:30:39.257Z,21.48
2023-02-13T15:33:21.273Z,22.15
2023-02-13T15:35:58.586Z,24.42
2023-02-13T15:38:34.606Z,23.35
2023-02-13T15:41:07.919Z,24.60
2023-02-13T15:43:37.392Z,30.65
2023-02-13T15:46:27.093Z,26.67
2023-02-13T15:48:57.080Z,34.13
2023-02-13T15:51:29.809Z,34.97
2023-02-13T15:54:05.649Z,29.98
2023-02-13T15:56:32.888Z,28.83
2023-02-13T15:59:01.629Z,27.65
2023-02-13T16:01:29.309Z,32.60
2023-02-13T16:04:05.369Z,29.77
2023-02-13T16:06:34.177Z,24.83
2023-02-13T16:09:02.570Z,30.65
2023-02-13T16:11:40.144Z,33.45
2023-02-13T16:14:15.190Z,30.70
2023-02-13T16:16:49.632Z,31.80
2023-02-13T16:19:27.574Z,43.72
2023-02-13T16:21:58.272Z,33.03
2023-02-13T16:24:27.104Z,31.17
2023-02-13T16:26:54.243Z,28.80
2023-02-13T16:29:23.658Z,29.90
2023-02-13T16:31:52.085Z,31.67
2023-02-13T16:34:29.869Z,31.23
2023-02-13T16:36:56.889Z,33.95
2023-02-13T16:39:30.023Z,33.47
2023-02-13T16:42:01.212Z,37.75
2023-02-13T16:44:30.839Z,36.90
2023-02-13T16:47:22.033Z,42.58
2023-02-13T16:49:56.506Z,31.23
2023-02-13T16:52:26.817Z,43.17
2023-02-13T16:54:58.286Z,39.08
2023-02-13T16:57:30.706Z,40.83
2023-02-13T17:00:24.474Z,39.20
2023-02-13T17:02:52.080Z,34.15
2023-02-13T17:05:28.300Z,34.38
2023-02-13T17:08:00.505Z,37.78
2023-02-13T17:10:31.459Z,34.30
2023-02-13T17:13:01.497Z,48.70
2023-02-13T17:15:31.535Z,36.85
2023-02-13T17:17:58.961Z,38.50
2023-02-13T17:20:28.540Z,35.05
2023-02-13T17:22:57.733Z,36.22
2023-02-13T17:25:30.634Z,35.05
2023-02-13T17:28:03.082Z,38.70
2023-02-13T17:30:32.461Z,35.95
2023-02-13T17:33:32.376Z,36.40
2023-02-13T17:35:59.066Z,37.35
2023-02-13T17:38:31.803Z,34.17
2023-02-13T17:40:58.731Z,35.30
2023-02-13T17:43:27.077Z,40.83
2023-02-13T17:45:53.660Z,37.80
2023-02-13T17:48:20.445Z,38.10
2023-02-13T17:50:50.039Z,33.65
2023-02-13T17:53:24.005Z,35.92
2023-02-13T17:55:51.154Z,32.05
2023-02-13T17:58:17.845Z,29.60
2023-02-13T18:00:47.551Z,33.85
2023-02-13T18:03:14.220Z,29.73
2023-02-13T18:05:41.204Z,29.13
2023-02-13T18:08:08.227Z,29.58
2023-02-13T18:10:36.801Z,32.03
2023-02-13T18:13:04.551Z,28.02
2023-02-13T18:15:38.966Z,33.72
2023-02-13T18:18:05.908Z,32.15
2023-02-13T18:20:32.889Z,42.10
2023-02-13T18:22:59.559Z,37.60
2023-02-13T18:25:26.881Z,33.80
2023-02-13T18:27:55.429Z,52.72
2023-02-13T18:30:22.553Z,43.70
2023-02-13T18:32:53.842Z,41.58
2023-02-13T18:35:22.089Z,39.40
2023-02-13T18:37:49.087Z,37.30
2023-02-13T18:40:17.263Z,39.92
2023-02-13T18:42:44.783Z,38.63
2023-02-13T18:45:14.900Z,38.67
2023-02-13T18:47:41.656Z,42.10
2023-02-13T18:50:11.673Z,42.17
2023-02-13T18:52:38.497Z,54.80
2023-02-13T18:55:07.248Z,46.55
2023-02-13T18:57:34.579Z,44.30
2023-02-13T19:00:01.274Z,43.70
2023-02-13T19:02:28.002Z,46.47
2023-02-13T19:04:54.636Z,48.80
2023-02-13T19:07:21.550Z,44.45
2023-02-13T19:09:48.901Z,45.90
2023-02-13T19:12:15.746Z,49.00
2023-02-13T19:14:42.435Z,44.80
2023-02-13T19:17:10.317Z,43.50
2023-02-13T19:19:37.161Z,41.35
2023-02-13T19:22:03.841Z,43.00
2023-02-13T19:24:30.646Z,38.17
2023-02-13T19:26:57.290Z,39.65
2023-02-13T19:29:24.033Z,35.70
2023-02-13T19:31:50.847Z,40.15
2023-02-13T19:34:17.505Z,32.35
2023-02-13T19:36:44.305Z,43.08
2023-02-13T19:39:11.250Z,39.10
2023-02-13T19:41:40.708Z,37.05
2023-02-13T19:44:08.799Z,32.90
2023-02-13T19:46:36.763Z,42.30
2023-02-13T19:49:04.623Z,39.08
2023-02-13T19:51:33.431Z,37.88
2023-02-13T19:54:08.296Z,31.92
2023-02-13T19:56:40.401Z,44.45
2023-02-13T20:01:37.491Z,40.35
2023-02-13T20:04:04.208Z,41.65
2023-02-13T20:06:33.548Z,44.53
2023-02-13T20:09:01.863Z,39.33
2023-02-13T20:11:28.851Z,33.08
2023-02-13T20:13:57.420Z,40.67
2023-02-13T20:16:24.196Z,33.25
2023-02-13T20:18:51.049Z,37.72
2023-02-13T20:21:18.872Z,38.75
2023-02-13T20:23:50.629Z,35.45
2023-02-13T20:26:17.991Z,30.77
2023-02-13T20:28:46.209Z,32.15
2023-02-13T20:31:18.695Z,32.13
2023-02-13T20:33:45.653Z,34.35
2023-02-13T20:36:24.498Z,36.25
2023-02-13T20:38:54.484Z,28.75
2023-02-13T20:41:39.153Z,33.45
2023-02-13T20:44:10.414Z,31.67
2023-02-13T20:46:39.367Z,50.03
2023-02-13T20:49:06.258Z,45.00
2023-02-13T20:51:33.262Z,40.90
2023-02-13T20:54:00.896Z,32.30
2023-02-13T20:56:28.596Z,36.58
2023-02-13T20:58:57.780Z,37.53
2023-02-13T21:01:30.814Z,36.30
2023-02-13T21:03:58.762Z,47.85
2023-02-13T21:06:30.262Z,39.17
2023-02-13T21:08:57.324Z,34.03
2023-02-13T21:11:24.979Z,36.95
2023-02-13T21:13:52.025Z,45.70
2023-02-13T21:16:24.758Z,37.97
2023-02-13T21:18:54.809Z,36.40
2023-02-13T21:21:24.463Z,42.45
2023-02-13T21:23:55.389Z,39.30
2023-02-13T21:26:22.860Z,46.47
2023-02-13T21:28:50.274Z,38.63
2023-02-13T21:31:24.164Z,40.15
2023-02-13T21:33:51.896Z,33.33
2023-02-13T21:36:18.937Z,33.58
2023-02-13T21:38:45.570Z,47.40
2023-02-13T21:41:15.479Z,50.92
2023-02-13T21:43:46.792Z,38.13
2023-02-13T21:46:19.758Z,35.13
2023-02-13T21:48:47.484Z,36.58
2023-02-13T21:51:16.763Z,33.70
2023-02-13T21:53:44.296Z,32.70
2023-02-13T21:56:14.205Z,35.00
2023-02-13T21:58:42.488Z,37.17
2023-02-13T22:01:25.570Z,34.47
2023-02-13T22:03:54.529Z,39.40
2023-02-13T22:06:21.798Z,39.33
2023-02-13T22:08:49.113Z,39.13
2023-02-13T22:11:18.482Z,36.30
2023-02-13T22:13:45.095Z,42.85
2023-02-13T22:16:14.262Z,32.33
2023-02-13T22:18:43.592Z,40.70
2023-02-13T22:21:15.532Z,38.80
2023-02-13T22:23:43.867Z,35.83
2023-02-13T22:26:19.443Z,43.35
2023-02-13T22:28:46.747Z,41.22
2023-02-13T22:31:15.094Z,36.70
2023-02-13T22:33:42.935Z,32.47
2023-02-13T22:36:13.125Z,37.70
2023-02-13T22:38:41.465Z,44.60
2023-02-13T22:41:19.450Z,31.38
2023-02-13T22:43:46.499Z,38.78
2023-02-13T22:46:22.209Z,36.45
2023-02-13T22:48:52.068Z,31.85
2023-02-13T22:51:27.459Z,30.83
2023-02-13T22:53:57.674Z,35.22
2023-02-13T22:56:25.684Z,33.15
2023-02-13T22:58:52.550Z,33.05
2023-02-13T23:01:23.990Z,33.90
2023-02-13T23:03:50.916Z,33.73
2023-02-13T23:06:19.211Z,35.97
2023-02-13T23:08:45.857Z,31.65
2023-02-13T23:11:33.734Z,31.60
2023-02-13T23:14:00.721Z,30.73
2023-02-13T23:16:27.666Z,28.27
2023-02-13T23:18:57.800Z,28.13
2023-02-13T23:21:25.537Z,31.40
2023-02-13T23:23:52.184Z,28.30
2023-02-13T23:26:19.341Z,30.83
2023-02-13T23:28:46.082Z,29.65
2023-02-13T23:31:12.787Z,36.08
2023-02-13T23:33:39.593Z,32.55
2023-02-13T23:36:06.810Z,31.00
2023-02-13T23:38:33.496Z,32.15
2023-02-13T23:41:09.340Z,35.60
2023-02-13T23:43:36.440Z,30.27
2023-02-13T23:46:04.639Z,37.53
2023-02-13T23:48:31.819Z,34.55
2023-02-13T23:50:59.204Z,32.83
2023-02-13T23:53:26.346Z,30.35
2023-02-13T23:55:55.015Z,32.35
2023-02-13T23:58:21.694Z,33.03
